createdAt,value
2023-05-20T00:09:37.947Z,1008.092
2023-05-20T00:39:55.721Z,1008.065
2023-05-20T01:10:14.345Z,1007.927
2023-05-20T01:40:32.186Z,1007.822
2023-05-20T02:10:47.820Z,1007.595
2023-05-20T02:41:05.045Z,1007.581
2023-05-20T03:11:23.088Z,1007.4169999999999
2023-05-20T03:41:41.038Z,1007.31
2023-05-20T04:42:17.747Z,1007.28
2023-05-20T05:12:35.800Z,1007.1469999999999
2023-05-20T05:42:54.718Z,1007.0160000000001
2023-05-20T06:13:15.963Z,1006.919
2023-05-20T06:43:42.303Z,1006.7760000000001
2023-05-20T07:14:02.552Z,1006.707
2023-05-20T07:44:18.230Z,1006.549
2023-05-20T08:14:30.861Z,1006.4689999999999
2023-05-20T09:15:28.920Z,1006.419
2023-05-20T09:45:44.559Z,1006.2489999999999
2023-05-20T10:15:59.127Z,1005.807
2023-05-20T10:46:26.299Z,1006.052
2023-05-20T11:16:29.185Z,1005.567
2023-05-20T11:47:00.092Z,1005.368
2023-05-20T12:17:13.954Z,1005.052
2023-05-20T12:47:40.590Z,1005.112
2023-05-20T13:17:49.209Z,1004.7539999999999
2023-05-20T13:48:11.528Z,1004.698
2023-05-20T14:18:20.075Z,1004.45
2023-05-20T14:48:29.619Z,1004.1519999999999
2023-05-20T15:18:44.236Z,1004.221
2023-05-20T15:49:00.903Z,1004.055
2023-05-20T16:19:19.144Z,1003.975
2023-05-20T16:49:35.124Z,1003.89
2023-05-20T17:19:55.307Z,1004.2310000000001
2023-05-20T17:50:11.398Z,1004.184
2023-05-20T18:50:43.990Z,1004.304
2023-05-20T19:21:00.959Z,1004.313
2023-05-20T19:51:17.818Z,1004.477
2023-05-20T20:21:36.711Z,1004.3860000000001
2023-05-20T20:51:55.258Z,1004.312
2023-05-20T21:22:13.234Z,1003.8839999999999
2023-05-20T21:52:32.269Z,1003.675
2023-05-20T22:22:49.270Z,1003.451
2023-05-20T22:53:06.090Z,1003.0319999999999
2023-05-20T23:23:30.375Z,1002.716
2023-05-20T23:53:45.002Z,1002.577
